Aeroporto :
LOGIN :

Iscrizione | Disclaimer

   EN    FR    IT 

 










Sommario :    VFR   VFR Marginale   IFR   IFR Intensivo   IFR Molto Intensivo
Visibilità : 
Base nubi : 
>= 8 km
>= 3000ft
5 / 8 km
1000 / 3000 ft
1500m / 5 km
500 / 1000 ft
800 / 1500m
200 / 500 ft
< 800m
< 200 ft
Simboli :   Temporali  Nebbia  Neve Forte  Precipitazioni Forti  Vento > 20 kt
SIGMETs :   Varie  Temporali  Ghiacco  Turbolenza  Onda orograficha  Ceneri Vulcaniche






- Altitudine del aeroporto : 289 ft
- Codice IATA : BSK


DAUB - Mohamed Khider

ULTIMO METAR :
  • 090700Z 11012KT 9999 SCT040 SCT100 18/08 Q1022

METARs OBSOLETI :
  • 090600Z 11010KT 9999 SCT040 SCT100 17/06 Q1021
  • 090500Z 11011KT 9999 FEW040 SCT100 17/06 Q1020

TAF TAF DAUB
Valido dal 09 a 06 ore il 10 a 06 ore UTC


090500Z 0906/1006 12008KT 9999 FEW040 SCT100
PROB30
TEMPO 0906/0918 FEW033TCU



MetMap, La meteo Aeronautica in un colpo d'occhio ! - Copyright ORBIFLY Dicembre 2007 - Disclaimer

ORBIFLY MET'MAP TEAM :

Programmazione e sviluppo : Alexandra Zaïnal
Concezione : Baudouin d'Aumeries
Aiuto per la programmazione : Marc-Olivier Méhu
Supporto tecnico e logistico : Manuel Goepfert
Aiuto per la traduzione : Arnaldo La Scala

Contatto : metmap@orbifly.com




FONTI E CREDITI :

   NOAA